Time;durP1;ratioP1;P1;durP2;ratioP2;P2;SDS_P1;SDS_P2;PMS_P1;PMS_P2;Temp;Humidity;BMP_temperature;BMP_pressure;BME280_temperature;BME280_humidity;BME280_pressure;Samples;Min_cycle;Max_cycle;Signal;HPM_P1;HPM_P2
2024/01/10 00:00:45;;;;;;;;;;;;;;;17.84;59.39;99362.50;2078627;28;19924;-67
2024/01/10 00:01:45;;;;;;;;;;;;;;;17.81;59.63;99360.19;2079929;28;19925;-68
2024/01/10 00:02:47;;;;;;;;;;;;;;;17.81;59.53;99366.38;2080124;28;21380;-67
2024/01/10 00:03:48;;;;;;;;;;;;;;;17.79;59.50;99359.53;2077832;28;20002;-67
2024/01/10 00:04:48;;;;;;;;;;;;;;;17.77;59.67;99361.53;2078502;28;20408;-67
2024/01/10 00:05:50;;;;;;;;;;;;;;;17.77;59.72;99353.47;2076908;28;19933;-67
2024/01/10 00:06:52;;;;;;;;;;;;;;;17.76;59.50;99351.81;2079584;28;19936;-67
2024/01/10 00:07:54;;;;;;;;;;;;;;;17.73;59.50;99352.19;2078717;28;19929;-67
2024/01/10 00:08:54;;;;;;;;;;;;;;;17.73;59.73;99357.53;2079287;28;19933;-67
2024/01/10 00:09:57;;;;;;;;;;;;;;;17.71;59.84;99360.41;2074867;28;20488;-68
2024/01/10 00:10:57;;;;;;;;;;;;;;;17.71;59.63;99356.88;2079181;28;19936;-67
2024/01/10 00:11:59;;;;;;;;;;;;;;;17.72;59.90;99355.84;2068746;28;20319;-67
2024/01/10 00:12:59;;;;;;;;;;;;;;;17.73;59.45;99362.91;2074150;28;19936;-67
2024/01/10 00:14:03;;;;;;;;;;;;;;;17.71;59.66;99359.56;2078425;28;20538;-67
2024/01/10 00:15:04;;;;;;;;;;;;;;;17.67;59.72;99348.38;2077898;28;20307;-67
2024/01/10 00:16:06;;;;;;;;;;;;;;;17.68;59.59;99352.72;2079367;28;20506;-68
2024/01/10 00:17:07;;;;;;;;;;;;;;;17.65;59.55;99353.06;2075438;28;19929;-67
2024/01/10 00:18:08;;;;;;;;;;;;;;;17.65;59.70;99351.22;2067416;28;20006;-67
2024/01/10 00:19:09;;;;;;;;;;;;;;;17.64;59.49;99354.09;2077354;28;19928;-67
2024/01/10 00:20:10;;;;;;;;;;;;;;;17.63;59.50;99353.28;2079090;28;20032;-67
2024/01/10 00:21:12;;;;;;;;;;;;;;;17.64;59.72;99354.94;2078536;28;19979;-66
2024/01/10 00:22:14;;;;;;;;;;;;;;;17.62;59.64;99348.91;2078020;28;20501;-67
2024/01/10 00:23:16;;;;;;;;;;;;;;;17.64;59.50;99359.47;2080061;28;19925;-68
2024/01/10 00:24:17;;;;;;;;;;;;;;;17.62;59.71;99361.47;2077664;28;19924;-67
2024/01/10 00:25:17;;;;;;;;;;;;;;;17.62;59.60;99359.63;2075219;28;20027;-68
2024/01/10 00:26:19;;;;;;;;;;;;;;;17.58;59.74;99355.66;2077254;28;19936;-67
2024/01/10 00:27:19;;;;;;;;;;;;;;;17.59;59.64;99360.00;2078774;28;19939;-67
2024/01/10 00:28:21;;;;;;;;;;;;;;;17.57;59.59;99353.13;2080272;28;19987;-67
2024/01/10 00:29:21;;;;;;;;;;;;;;;17.56;59.84;99355.00;2077519;28;19971;-67
2024/01/10 00:30:23;;;;;;;;;;;;;;;17.55;59.71;99356.00;2078418;28;19932;-67
2024/01/10 00:31:24;;;;;;;;;;;;;;;17.55;59.59;99358.69;2076079;28;19937;-66
2024/01/10 00:32:25;;;;;;;;;;;;;;;17.54;59.76;99348.13;2077782;28;19929;-67
2024/01/10 00:33:26;;;;;;;;;;;;;;;17.50;59.67;99350.34;2079279;28;19932;-67
2024/01/10 00:34:28;;;;;;;;;;;;;;;17.48;59.71;99352.38;2077572;28;20012;-67
2024/01/10 00:35:28;;;;;;;;;;;;;;;17.44;59.98;99345.69;2071125;28;19929;-67
2024/01/10 00:36:30;;;;;;;;;;;;;;;17.43;60.07;99344.00;2076788;28;19933;-67
2024/01/10 00:37:32;;;;;;;;;;;;;;;17.41;60.00;99351.41;2080300;28;20303;-67
2024/01/10 00:38:33;;;;;;;;;;;;;;;17.40;59.81;99352.41;2078818;28;20003;-68
2024/01/10 00:39:34;;;;;;;;;;;;;;;17.41;59.77;99343.34;2080147;28;20384;-67
2024/01/10 00:40:35;;;;;;;;;;;;;;;17.37;60.04;99347.41;2074165;28;19929;-68
2024/01/10 00:41:36;;;;;;;;;;;;;;;17.37;59.96;99342.88;2078983;28;20047;-67
2024/01/10 00:42:37;;;;;;;;;;;;;;;17.37;60.05;99339.38;2076772;28;19932;-67
2024/01/10 00:43:39;;;;;;;;;;;;;;;17.35;60.08;99341.38;2078723;28;20672;-67
2024/01/10 00:44:39;;;;;;;;;;;;;;;17.33;59.96;99338.91;2080822;28;20499;-67
2024/01/10 00:45:41;;;;;;;;;;;;;;;17.32;60.21;99349.78;2078987;28;19976;-67
2024/01/10 00:46:42;;;;;;;;;;;;;;;17.31;60.15;99348.97;2077077;28;19929;-67
2024/01/10 00:47:43;;;;;;;;;;;;;;;17.29;59.94;99353.66;2076615;28;19956;-67
2024/01/10 00:48:44;;;;;;;;;;;;;;;17.34;60.12;99353.13;2080594;28;19994;-68
2024/01/10 00:49:45;;;;;;;;;;;;;;;17.28;59.96;99356.53;2076633;28;19928;-67
2024/01/10 00:50:46;;;;;;;;;;;;;;;17.23;60.20;99356.22;2078794;28;20535;-67
2024/01/10 00:51:48;;;;;;;;;;;;;;;17.25;59.99;99355.03;2081024;28;19937;-68
2024/01/10 00:52:50;;;;;;;;;;;;;;;17.22;60.09;99354.53;2072927;28;19932;-68
2024/01/10 00:53:51;;;;;;;;;;;;;;;17.22;60.16;99360.75;2078118;28;19959;-68
2024/01/10 00:54:52;;;;;;;;;;;;;;;17.19;60.31;99353.91;2079218;28;19948;-67
2024/01/10 00:55:53;;;;;;;;;;;;;;;17.20;60.12;99358.25;2075241;28;20024;-67
2024/01/10 00:56:54;;;;;;;;;;;;;;;17.17;60.28;99363.97;2075684;28;19940;-67
2024/01/10 00:57:56;;;;;;;;;;;;;;;17.17;60.11;99363.97;2078307;28;20373;-67
2024/01/10 00:58:57;;;;;;;;;;;;;;;17.17;60.21;99366.63;2079331;28;20586;-67
2024/01/10 00:59:59;;;;;;;;;;;;;;;17.13;60.27;99364.47;2079308;28;19933;-67
2024/01/10 01:01:00;;;;;;;;;;;;;;;17.12;60.31;99360.97;2078637;28;19959;-67
2024/01/10 01:02:01;;;;;;;;;;;;;;;17.13;60.37;99373.38;2079228;28;20352;-67
2024/01/10 01:03:02;;;;;;;;;;;;;;;17.14;60.04;99367.00;2079401;28;19932;-67
2024/01/10 01:04:03;;;;;;;;;;;;;;;17.12;60.30;99371.69;2076013;28;20029;-67
2024/01/10 01:05:04;;;;;;;;;;;;;;;17.09;60.26;99368.53;2081733;28;19932;-67
2024/01/10 01:06:06;;;;;;;;;;;;;;;17.08;60.33;99369.56;2076904;28;20051;-67
2024/01/10 01:07:07;;;;;;;;;;;;;;;17.06;60.45;99374.25;2077931;28;19936;-67
2024/01/10 01:08:10;;;;;;;;;;;;;;;17.06;60.51;99371.56;2080305;28;19983;-67
2024/01/10 01:09:12;;;;;;;;;;;;;;;17.03;60.50;99375.44;2076312;28;19944;-67
2024/01/10 01:10:13;;;;;;;;;;;;;;;17.03;60.49;99378.13;2070655;28;19990;-67
2024/01/10 01:11:14;;;;;;;;;;;;;;;17.04;60.37;99373.59;2075137;28;19936;-67
2024/01/10 01:12:16;;;;;;;;;;;;;;;17.05;60.26;99377.91;2077411;28;19933;-67
2024/01/10 01:13:17;;;;;;;;;;;;;;;17.03;60.41;99379.97;2076985;28;19940;-67
2024/01/10 01:14:18;;;;;;;;;;;;;;;17.02;60.42;99375.59;2076480;28;19932;-67
2024/01/10 01:15:19;;;;;;;;;;;;;;;16.99;60.55;99379.47;2076861;28;19972;-67
2024/01/10 01:16:21;;;;;;;;;;;;;;;17.00;60.35;99374.97;2079030;28;19948;-67
2024/01/10 01:17:22;;;;;;;;;;;;;;;17.01;60.42;99381.97;2079633;28;19940;-67
2024/01/10 01:18:23;;;;;;;;;;;;;;;16.97;60.55;99378.81;2077927;28;19943;-67
2024/01/10 01:19:24;;;;;;;;;;;;;;;16.97;60.51;99382.31;2070607;28;20506;-68
2024/01/10 01:20:26;;;;;;;;;;;;;;;17.01;60.30;99385.47;2077117;28;19925;-67
2024/01/10 01:21:27;;;;;;;;;;;;;;;16.94;60.23;99379.16;2081178;28;19937;-68
2024/01/10 01:22:28;;;;;;;;;;;;;;;16.97;60.42;99382.31;2080226;28;20487;-68
2024/01/10 01:23:30;;;;;;;;;;;;;;;16.97;60.21;99386.84;2086583;28;19933;-68
2024/01/10 01:24:32;;;;;;;;;;;;;;;17.00;60.20;99383.81;2087945;28;19972;-68
2024/01/10 01:25:33;;;;;;;;;;;;;;;16.97;60.16;99387.69;2084243;28;20032;-67
2024/01/10 01:26:34;;;;;;;;;;;;;;;16.93;60.45;99386.34;2082079;28;19936;-67
2024/01/10 01:27:35;;;;;;;;;;;;;;;16.94;60.29;99380.00;2080717;28;20545;-67
2024/01/10 01:28:36;;;;;;;;;;;;;;;16.93;60.34;99385.53;2085478;28;19928;-67
2024/01/10 01:29:37;;;;;;;;;;;;;;;16.94;60.38;99379.16;2086554;28;19952;-67
2024/01/10 01:30:39;;;;;;;;;;;;;;;16.94;60.42;99385.34;2085365;28;19963;-67
2024/01/10 01:31:39;;;;;;;;;;;;;;;16.93;60.23;99385.53;2087976;28;20353;-67
2024/01/10 01:32:41;;;;;;;;;;;;;;;16.89;60.30;99385.03;2085619;28;19982;-67
2024/01/10 01:33:42;;;;;;;;;;;;;;;16.89;60.19;99387.72;2084111;28;20319;-67
2024/01/10 01:34:43;;;;;;;;;;;;;;;16.86;60.45;99382.72;2080707;28;20012;-67
2024/01/10 01:35:44;;;;;;;;;;;;;;;16.87;60.45;99387.06;2085682;28;20964;-67
2024/01/10 01:36:45;;;;;;;;;;;;;;;16.87;60.50;99388.91;2085490;28;19933;-67
2024/01/10 01:37:46;;;;;;;;;;;;;;;16.85;60.33;99390.91;2085605;28;19939;-67
2024/01/10 01:38:49;;;;;;;;;;;;;;;16.86;60.54;99381.88;2086826;28;20774;-67
2024/01/10 01:39:50;;;;;;;;;;;;;;;16.87;60.37;99384.38;2089974;28;19928;-67
2024/01/10 01:40:51;;;;;;;;;;;;;;;16.86;60.28;99381.88;2086296;28;20478;-67
2024/01/10 01:41:52;;;;;;;;;;;;;;;16.86;60.52;99384.56;2084940;28;19928;-67
2024/01/10 01:42:53;;;;;;;;;;;;;;;16.85;60.28;99380.19;2082801;28;19967;-67
2024/01/10 01:43:54;;;;;;;;;;;;;;;16.85;60.47;99383.69;2082673;28;19928;-67
2024/01/10 01:44:56;;;;;;;;;;;;;;;16.82;60.55;99384.06;2084265;28;20378;-67
2024/01/10 01:45:56;;;;;;;;;;;;;;;16.81;60.42;99384.25;2086391;28;19928;-66
2024/01/10 01:46:58;;;;;;;;;;;;;;;16.81;60.37;99376.22;2085610;28;20036;-67
2024/01/10 01:47:59;;;;;;;;;;;;;;;16.82;60.42;99385.91;2085319;28;19932;-67
2024/01/10 01:49:00;;;;;;;;;;;;;;;16.79;60.46;99389.75;2087762;28;19968;-67
2024/01/10 01:50:01;;;;;;;;;;;;;;;16.79;60.32;99380.91;2087410;28;19983;-67
2024/01/10 01:51:04;;;;;;;;;;;;;;;16.79;60.30;99381.72;2088683;28;19932;-67
2024/01/10 01:52:06;;;;;;;;;;;;;;;16.75;60.41;99386.56;2087573;28;19933;-67
2024/01/10 01:53:07;;;;;;;;;;;;;;;16.78;60.34;99379.22;2083704;28;19928;-67
2024/01/10 01:54:11;;;;;;;;;;;;;;;16.77;60.30;99381.09;2082813;28;20002;-67
2024/01/10 01:55:12;;;;;;;;;;;;;;;16.77;60.29;99374.88;2088604;28;19940;-67
2024/01/10 01:56:13;;;;;;;;;;;;;;;16.74;60.45;99390.28;2085900;28;19936;-68
2024/01/10 01:57:15;;;;;;;;;;;;;;;16.75;60.31;99385.75;2088376;28;19959;-67
2024/01/10 01:58:15;;;;;;;;;;;;;;;16.71;60.42;99379.88;2085316;28;19939;-67
2024/01/10 01:59:17;;;;;;;;;;;;;;;16.77;60.33;99378.41;2089699;28;20426;-67
2024/01/10 02:00:18;;;;;;;;;;;;;;;16.69;60.41;99386.44;2089494;28;19928;-67
2024/01/10 02:01:21;;;;;;;;;;;;;;;16.66;60.59;99376.03;2087041;28;19929;-68
2024/01/10 02:02:22;;;;;;;;;;;;;;;16.68;60.48;99382.06;2089156;28;19924;-68
2024/01/10 02:03:23;;;;;;;;;;;;;;;16.65;60.48;99377.91;2086482;28;20682;-67
2024/01/10 02:04:25;;;;;;;;;;;;;;;16.65;60.46;99377.91;2086949;28;19931;-67
2024/01/10 02:05:27;;;;;;;;;;;;;;;16.64;60.46;99392.31;2090465;28;20377;-68
2024/01/10 02:06:29;;;;;;;;;;;;;;;16.62;60.47;99380.91;2089935;28;20031;-68
2024/01/10 02:07:30;;;;;;;;;;;;;;;16.58;60.70;99382.28;2087519;28;19928;-68
2024/01/10 02:08:32;;;;;;;;;;;;;;;16.61;60.50;99383.78;2088051;28;19932;-68
2024/01/10 02:09:34;;;;;;;;;;;;;;;16.60;60.65;99382.94;2088459;28;19967;-67
2024/01/10 02:10:36;;;;;;;;;;;;;;;16.56;60.65;99383.47;2084089;28;20686;-68
2024/01/10 02:11:37;;;;;;;;;;;;;;;16.56;60.75;99381.63;2079047;28;19925;-68
2024/01/10 02:12:38;;;;;;;;;;;;;;;16.56;60.54;99384.28;2086031;28;20273;-68
2024/01/10 02:13:39;;;;;;;;;;;;;;;16.58;60.68;99384.13;2089988;28;19935;-68
2024/01/10 02:14:41;;;;;;;;;;;;;;;16.57;60.62;99385.94;2088934;28;19960;-68
2024/01/10 02:15:42;;;;;;;;;;;;;;;16.59;60.44;99386.63;2088961;28;19932;-68
2024/01/10 02:16:44;;;;;;;;;;;;;;;16.61;60.46;99379.25;2090008;28;19931;-68
2024/01/10 02:17:44;;;;;;;;;;;;;;;16.60;60.34;99382.94;2084658;28;21358;-68
2024/01/10 02:18:46;;;;;;;;;;;;;;;16.63;60.39;99382.59;2088409;28;19933;-68
2024/01/10 02:19:47;;;;;;;;;;;;;;;16.57;60.44;99385.94;2081614;28;19924;-69
2024/01/10 02:20:48;;;;;;;;;;;;;;;16.53;60.33;99388.16;2082549;28;20055;-69
2024/01/10 02:21:49;;;;;;;;;;;;;;;16.49;60.63;99381.47;2087487;28;19928;-68
2024/01/10 02:22:50;;;;;;;;;;;;;;;16.47;60.66;99385.34;2085615;28;20753;-69
2024/01/10 02:23:51;;;;;;;;;;;;;;;16.47;60.58;99383.47;2086611;28;19976;-68
2024/01/10 02:24:55;;;;;;;;;;;;;;;16.41;60.70;99389.53;2086983;28;19931;-68
2024/01/10 02:25:56;;;;;;;;;;;;;;;16.42;60.76;99385.00;2085265;28;19924;-68
2024/01/10 02:26:57;;;;;;;;;;;;;;;16.41;60.77;99384.19;2085807;28;19956;-68
2024/01/10 02:27:58;;;;;;;;;;;;;;;16.45;60.66;99390.00;2088832;28;19928;-69
2024/01/10 02:28:59;;;;;;;;;;;;;;;16.43;60.74;99387.50;2084769;28;19979;-68
2024/01/10 02:30:02;;;;;;;;;;;;;;;16.45;60.64;99387.34;2086749;28;20292;-69
2024/01/10 02:31:03;;;;;;;;;;;;;;;16.41;60.74;99386.84;2087813;28;19925;-69
2024/01/10 02:32:05;;;;;;;;;;;;;;;16.43;60.67;99383.97;2087072;28;20007;-69
2024/01/10 02:33:05;;;;;;;;;;;;;;;16.41;60.77;99383.31;2086616;28;19932;-69
2024/01/10 02:34:07;;;;;;;;;;;;;;;16.38;60.89;99386.34;2088942;28;21053;-69
2024/01/10 02:35:08;;;;;;;;;;;;;;;16.35;60.71;99384.00;2086215;28;19932;-69
2024/01/10 02:36:08;;;;;;;;;;;;;;;16.31;60.79;99379.00;2088549;28;20012;-69
2024/01/10 02:37:10;;;;;;;;;;;;;;;16.32;60.66;99379.81;2082098;28;20074;-69
2024/01/10 02:38:10;;;;;;;;;;;;;;;16.33;60.83;99383.34;2087999;28;19932;-69
2024/01/10 02:39:12;;;;;;;;;;;;;;;16.30;60.90;99382.69;2087388;28;19964;-68
2024/01/10 02:40:14;;;;;;;;;;;;;;;16.34;60.85;99377.00;2079899;28;19928;-69
2024/01/10 02:41:15;;;;;;;;;;;;;;;16.26;60.95;99378.66;2084471;28;19967;-67
2024/01/10 02:42:16;;;;;;;;;;;;;;;16.26;60.81;99381.34;2084928;28;19929;-67
2024/01/10 02:43:17;;;;;;;;;;;;;;;16.25;61.09;99371.66;2087210;28;19932;-67
2024/01/10 02:44:19;;;;;;;;;;;;;;;16.27;60.84;99371.50;2086722;28;20407;-67
2024/01/10 02:45:20;;;;;;;;;;;;;;;16.28;60.96;99373.97;2086483;28;20399;-67
2024/01/10 02:46:22;;;;;;;;;;;;;;;16.24;60.96;99377.16;2080941;28;19986;-69
2024/01/10 02:47:23;;;;;;;;;;;;;;;16.25;60.88;99379.69;2088700;28;19941;-68
2024/01/10 02:48:25;;;;;;;;;;;;;;;16.25;60.81;99374.31;2084665;28;19931;-69
2024/01/10 02:49:25;;;;;;;;;;;;;;;16.26;60.84;99373.31;2086659;28;20471;-69
2024/01/10 02:50:27;;;;;;;;;;;;;;;16.25;60.75;99374.31;2088004;28;19931;-68
2024/01/10 02:51:28;;;;;;;;;;;;;;;16.29;60.76;99377.50;2086979;28;19932;-68
2024/01/10 02:52:30;;;;;;;;;;;;;;;16.24;60.81;99377.16;2086152;28;20023;-68
2024/01/10 02:53:31;;;;;;;;;;;;;;;16.25;60.98;99373.50;2086342;28;19937;-69
2024/01/10 02:54:33;;;;;;;;;;;;;;;16.20;60.82;99376.66;2087651;28;19929;-72
2024/01/10 02:55:35;;;;;;;;;;;;;;;16.21;60.96;99377.50;2083287;28;19929;-68
2024/01/10 02:56:37;;;;;;;;;;;;;;;16.24;60.80;99363.78;2085096;28;20032;-68
2024/01/10 02:57:38;;;;;;;;;;;;;;;16.24;60.71;99367.31;2086524;28;19951;-68
2024/01/10 02:58:38;;;;;;;;;;;;;;;16.22;60.74;99376.53;2082921;28;20012;-68
2024/01/10 02:59:40;;;;;;;;;;;;;;;16.22;60.83;99374.66;2087484;28;19971;-68
2024/01/10 03:00:40;;;;;;;;;;;;;;;16.18;60.78;99370.66;2088501;28;19928;-68
2024/01/10 03:01:42;;;;;;;;;;;;;;;16.15;60.82;99376.34;2087698;28;20051;-68
2024/01/10 03:02:42;;;;;;;;;;;;;;;16.15;60.97;99373.66;2087024;28;20311;-68
2024/01/10 03:03:44;;;;;;;;;;;;;;;16.19;60.87;99368.84;2087598;28;19980;-69
2024/01/10 03:04:45;;;;;;;;;;;;;;;16.18;60.78;99361.78;2082006;28;19997;-68
2024/01/10 03:05:46;;;;;;;;;;;;;;;16.19;60.76;99366.16;2085388;28;19929;-68
2024/01/10 03:06:47;;;;;;;;;;;;;;;16.17;60.76;99365.47;2086784;28;20019;-68
2024/01/10 03:07:48;;;;;;;;;;;;;;;16.14;60.92;99357.78;2084976;28;20035;-66
2024/01/10 03:08:49;;;;;;;;;;;;;;;16.16;60.71;99361.97;2087337;28;20055;-66
2024/01/10 03:09:50;;;;;;;;;;;;;;;16.14;60.78;99374.69;2088620;28;19932;-65
2024/01/10 03:10:52;;;;;;;;;;;;;;;16.15;60.80;99365.63;2087499;28;19929;-68
2024/01/10 03:11:54;;;;;;;;;;;;;;;16.15;60.82;99364.81;2085164;28;19937;-68
2024/01/10 03:12:54;;;;;;;;;;;;;;;16.16;60.69;99367.31;2084270;28;20288;-68
2024/01/10 03:14:02;;;;;;;;;;;;;;;16.15;60.82;99370.16;2089157;28;19983;-68
2024/01/10 03:15:02;;;;;;;;;;;;;;;16.14;60.72;99366.66;2085945;28;19935;-68
2024/01/10 03:16:04;;;;;;;;;;;;;;;16.11;60.78;99356.28;2088180;28;20019;-67
2024/01/10 03:17:05;;;;;;;;;;;;;;;16.13;60.69;99364.13;2088082;28;19958;-67
2024/01/10 03:18:05;;;;;;;;;;;;;;;16.12;60.83;99362.47;2087579;28;20022;-68
2024/01/10 03:19:07;;;;;;;;;;;;;;;16.11;60.79;99367.00;2089968;28;20996;-67
2024/01/10 03:20:08;;;;;;;;;;;;;;;16.12;60.72;99365.16;2087403;28;19935;-67
2024/01/10 03:21:10;;;;;;;;;;;;;;;16.08;60.81;99359.31;2080244;28;20023;-68
2024/01/10 03:22:10;;;;;;;;;;;;;;;16.08;60.78;99370.84;2086503;28;19935;-67
2024/01/10 03:23:11;;;;;;;;;;;;;;;16.10;60.75;99365.31;2088728;28;19968;-67
2024/01/10 03:24:13;;;;;;;;;;;;;;;16.08;60.76;99364.66;2084888;28;20012;-68
2024/01/10 03:25:13;;;;;;;;;;;;;;;16.07;60.83;99362.97;2086426;28;20385;-68
2024/01/10 03:26:15;;;;;;;;;;;;;;;16.05;60.72;99367.69;2087239;28;19940;-68
2024/01/10 03:27:17;;;;;;;;;;;;;;;16.05;60.70;99367.69;2084494;28;19932;-68
2024/01/10 03:28:17;;;;;;;;;;;;;;;16.03;60.80;99364.31;2084931;28;19928;-68
2024/01/10 03:29:19;;;;;;;;;;;;;;;16.06;60.72;99358.63;2088146;28;20569;-67
2024/01/10 03:30:20;;;;;;;;;;;;;;;16.04;60.83;99357.97;2086567;28;19929;-68
2024/01/10 03:31:21;;;;;;;;;;;;;;;16.02;60.80;99362.66;2088103;28;20015;-68
2024/01/10 03:32:22;;;;;;;;;;;;;;;16.04;60.75;99360.63;2086398;28;19928;-68
2024/01/10 03:33:24;;;;;;;;;;;;;;;16.01;60.73;99359.13;2087472;28;20371;-68
2024/01/10 03:34:24;;;;;;;;;;;;;;;16.02;60.87;99357.31;2089359;28;19939;-68
2024/01/10 03:35:26;;;;;;;;;;;;;;;16.02;60.80;99362.66;2088989;28;20330;-69
2024/01/10 03:36:27;;;;;;;;;;;;;;;16.00;60.79;99360.16;2086712;28;19924;-68
2024/01/10 03:37:28;;;;;;;;;;;;;;;16.02;60.76;99357.31;2089435;28;19945;-68
2024/01/10 03:38:29;;;;;;;;;;;;;;;16.00;60.64;99359.31;2085748;28;19943;-68
2024/01/10 03:39:30;;;;;;;;;;;;;;;16.02;60.60;99355.47;2086575;28;20014;-68
2024/01/10 03:40:32;;;;;;;;;;;;;;;16.00;60.64;99359.31;2083982;28;20520;-68
2024/01/10 03:41:34;;;;;;;;;;;;;;;15.97;60.76;99360.50;2082491;28;20613;-67
2024/01/10 03:42:35;;;;;;;;;;;;;;;16.00;60.66;99362.81;2089887;28;19935;-68
2024/01/10 03:43:36;;;;;;;;;;;;;;;15.98;60.72;99361.31;2085815;28;19955;-68
2024/01/10 03:44:38;;;;;;;;;;;;;;;15.98;60.72;99355.97;2087717;28;20068;-69
2024/01/10 03:45:39;;;;;;;;;;;;;;;15.98;60.76;99362.16;2086852;28;20041;-68
2024/01/10 03:46:40;;;;;;;;;;;;;;;15.95;60.79;99356.31;2084948;28;20000;-69
2024/01/10 03:47:41;;;;;;;;;;;;;;;15.95;60.74;99358.97;2087691;28;19929;-69
2024/01/10 03:48:47;;;;;;;;;;;;;;;15.94;60.76;99355.47;2087633;28;20008;-69
2024/01/10 03:49:48;;;;;;;;;;;;;;;15.95;60.70;99356.31;2085264;28;20311;-69
2024/01/10 03:50:49;;;;;;;;;;;;;;;15.92;60.77;99362.00;2085932;28;19929;-68
2024/01/10 03:51:50;;;;;;;;;;;;;;;15.91;60.71;99360.31;2088056;28;20370;-68
2024/01/10 03:52:52;;;;;;;;;;;;;;;15.90;60.83;99350.63;2087461;28;20055;-68
2024/01/10 03:53:54;;;;;;;;;;;;;;;15.91;60.80;99350.47;2086853;28;19932;-68
2024/01/10 03:54:55;;;;;;;;;;;;;;;15.90;60.77;99354.13;2084191;28;20009;-69
2024/01/10 03:55:57;;;;;;;;;;;;;;;15.90;60.77;99354.13;2085455;28;20065;-68
2024/01/10 03:56:58;;;;;;;;;;;;;;;15.88;60.82;99361.50;2087691;28;22187;-68
2024/01/10 03:58:00;;;;;;;;;;;;;;;15.91;60.70;99354.94;2087106;28;20353;-68
2024/01/10 03:59:01;;;;;;;;;;;;;;;15.89;60.81;99357.81;2085964;28;20710;-68
2024/01/10 04:00:03;;;;;;;;;;;;;;;15.91;60.73;99361.16;2082744;28;20016;-68
2024/01/10 04:01:06;;;;;;;;;;;;;;;15.92;60.65;99356.66;2081215;28;20036;-68
2024/01/10 04:02:07;;;;;;;;;;;;;;;15.91;60.71;99360.31;2086317;28;19936;-68
2024/01/10 04:03:08;;;;;;;;;;;;;;;15.90;60.66;99353.28;2085182;28;20449;-68
2024/01/10 04:04:09;;;;;;;;;;;;;;;15.87;60.84;99357.13;2085327;28;19932;-68
2024/01/10 04:05:12;;;;;;;;;;;;;;;15.86;60.69;99358.97;2089325;28;20494;-68
2024/01/10 04:06:12;;;;;;;;;;;;;;;15.88;60.74;99358.84;2086834;28;20440;-68
2024/01/10 04:07:13;;;;;;;;;;;;;;;15.86;60.65;99358.97;2087009;28;20020;-68
2024/01/10 04:08:15;;;;;;;;;;;;;;;15.85;60.76;99359.13;2087922;28;19935;-67
2024/01/10 04:09:16;;;;;;;;;;;;;;;15.82;60.80;99362.16;2086932;28;19929;-68
2024/01/10 04:10:18;;;;;;;;;;;;;;;15.81;60.75;99364.00;2083735;28;20799;-68
2024/01/10 04:11:18;;;;;;;;;;;;;;;15.82;60.77;99363.00;2086684;28;19928;-68
2024/01/10 04:12:20;;;;;;;;;;;;;;;15.80;60.86;99359.66;2084519;28;20036;-67
2024/01/10 04:13:22;;;;;;;;;;;;;;;15.80;60.65;99362.34;2087259;28;19982;-68
2024/01/10 04:14:22;;;;;;;;;;;;;;;15.77;60.84;99362.69;2086094;28;19931;-68
2024/01/10 04:15:24;;;;;;;;;;;;;;;15.80;60.88;99361.50;2084793;28;19939;-68
2024/01/10 04:16:26;;;;;;;;;;;;;;;15.78;60.78;99360.84;2086907;28;19990;-68
2024/01/10 04:17:26;;;;;;;;;;;;;;;15.77;60.78;99362.69;2085668;28;19928;-68
2024/01/10 04:18:28;;;;;;;;;;;;;;;15.79;60.75;99360.66;2084532;28;20504;-68
2024/01/10 04:19:29;;;;;;;;;;;;;;;15.77;60.95;99361.84;2086917;28;20198;-68
2024/01/10 04:20:30;;;;;;;;;;;;;;;15.77;60.75;99356.50;2086606;28;20015;-69
2024/01/10 04:21:31;;;;;;;;;;;;;;;15.75;60.64;99356.66;2086260;28;21476;-70
2024/01/10 04:22:32;;;;;;;;;;;;;;;15.73;60.89;99358.66;2085114;28;19929;-69
2024/01/10 04:23:33;;;;;;;;;;;;;;;15.74;60.97;99348.78;2085728;28;19932;-69
2024/01/10 04:24:34;;;;;;;;;;;;;;;15.73;60.87;99355.97;2087656;28;20706;-69
2024/01/10 04:25:35;;;;;;;;;;;;;;;15.71;60.89;99357.13;2085313;28;20020;-68
2024/01/10 04:26:36;;;;;;;;;;;;;;;15.71;60.92;99359.81;2086865;28;19939;-69
2024/01/10 04:27:39;;;;;;;;;;;;;;;15.72;60.92;99356.16;2083265;28;20019;-68
2024/01/10 04:28:41;;;;;;;;;;;;;;;15.74;60.96;99359.47;2085907;28;19929;-69
2024/01/10 04:29:42;;;;;;;;;;;;;;;15.78;60.71;99361.66;2087261;28;19928;-69
2024/01/10 04:30:43;;;;;;;;;;;;;;;15.84;60.52;99354.81;2086865;28;19932;-69
2024/01/10 04:31:45;;;;;;;;;;;;;;;15.91;60.56;99354.94;2087619;28;19979;-69
2024/01/10 04:32:45;;;;;;;;;;;;;;;15.97;60.25;99354.31;2087413;28;19925;-69
2024/01/10 04:33:47;;;;;;;;;;;;;;;16.03;60.11;99353.63;2087077;28;19963;-69
2024/01/10 04:34:47;;;;;;;;;;;;;;;16.11;60.02;99356.28;2085349;28;19925;-68
2024/01/10 04:35:49;;;;;;;;;;;;;;;16.16;59.83;99348.59;2087249;28;20012;-69
2024/01/10 04:36:51;;;;;;;;;;;;;;;16.23;59.79;99351.41;2084693;28;20057;-68
2024/01/10 04:37:51;;;;;;;;;;;;;;;16.29;59.63;99356.91;2087738;28;19986;-69
2024/01/10 04:38:53;;;;;;;;;;;;;;;16.34;59.58;99353.72;2085551;28;19932;-69
2024/01/10 04:39:53;;;;;;;;;;;;;;;16.39;59.57;99353.22;2087087;28;19928;-69
2024/01/10 04:40:54;;;;;;;;;;;;;;;16.42;59.48;99353.69;2082574;28;20379;-69
2024/01/10 04:41:56;;;;;;;;;;;;;;;16.45;59.60;99352.53;2085929;28;19991;-68
2024/01/10 04:42:58;;;;;;;;;;;;;;;16.48;59.50;99357.53;2084573;28;19929;-69
2024/01/10 04:43:59;;;;;;;;;;;;;;;16.52;59.52;99364.22;2088217;28;19924;-69
2024/01/10 04:45:00;;;;;;;;;;;;;;;16.56;59.49;99360.19;2086618;28;19928;-68
2024/01/10 04:46:01;;;;;;;;;;;;;;;16.58;59.50;99362.72;2086242;28;20596;-68
2024/01/10 04:47:02;;;;;;;;;;;;;;;16.61;59.52;99362.34;2086664;28;20011;-68
2024/01/10 04:48:03;;;;;;;;;;;;;;;16.65;59.40;99369.84;2086591;28;20051;-68
2024/01/10 04:49:04;;;;;;;;;;;;;;;16.67;59.31;99362.50;2085062;28;19940;-68
2024/01/10 04:50:05;;;;;;;;;;;;;;;16.70;59.31;99364.81;2088612;28;19929;-69
2024/01/10 04:51:07;;;;;;;;;;;;;;;16.73;59.37;99361.78;2086589;28;20040;-68
2024/01/10 04:52:08;;;;;;;;;;;;;;;16.75;59.45;99362.47;2086738;28;19940;-69
2024/01/10 04:53:09;;;;;;;;;;;;;;;16.79;59.39;99367.50;2087682;28;19935;-69
2024/01/10 04:54:10;;;;;;;;;;;;;;;16.81;59.30;99363.63;2086739;28;19935;-69
2024/01/10 04:55:11;;;;;;;;;;;;;;;16.84;59.24;99365.13;2079339;28;20761;-69
2024/01/10 04:56:12;;;;;;;;;;;;;;;16.88;59.29;99363.75;2083919;28;19929;-69
2024/01/10 04:57:14;;;;;;;;;;;;;;;16.90;59.31;99362.59;2083866;28;20035;-69
2024/01/10 04:58:15;;;;;;;;;;;;;;;16.93;59.34;99364.09;2088804;28;19932;-68
2024/01/10 04:59:17;;;;;;;;;;;;;;;16.96;59.21;99369.09;2085011;28;20392;-67
2024/01/10 05:00:18;;;;;;;;;;;;;;;16.97;59.22;99366.25;2087954;28;21113;-67
2024/01/10 05:01:20;;;;;;;;;;;;;;;17.00;59.05;99365.06;2085456;28;20023;-67
2024/01/10 05:02:20;;;;;;;;;;;;;;;17.02;59.15;99367.56;2088101;28;19951;-68
2024/01/10 05:03:22;;;;;;;;;;;;;;;17.04;59.22;99366.38;2086640;28;20071;-68
2024/01/10 05:04:23;;;;;;;;;;;;;;;17.06;59.22;99356.31;2087016;28;19936;-66
2024/01/10 05:05:25;;;;;;;;;;;;;;;17.08;59.07;99358.84;2082971;28;20482;-67
2024/01/10 05:06:25;;;;;;;;;;;;;;;17.10;59.26;99362.97;2086508;28;20523;-67
2024/01/10 05:07:27;;;;;;;;;;;;;;;17.11;59.29;99364.66;2085476;28;19932;-66
2024/01/10 05:08:28;;;;;;;;;;;;;;;17.14;59.21;99367.00;2084921;28;19979;-67
2024/01/10 05:09:29;;;;;;;;;;;;;;;17.15;59.27;99365.97;2083232;28;20316;-68
2024/01/10 05:10:30;;;;;;;;;;;;;;;17.16;59.18;99364.97;2087031;28;22259;-67
2024/01/10 05:11:32;;;;;;;;;;;;;;;17.21;59.24;99372.47;2084374;28;19940;-66
2024/01/10 05:12:33;;;;;;;;;;;;;;;17.19;59.23;99363.78;2085986;28;19928;-67
2024/01/10 05:13:36;;;;;;;;;;;;;;;17.24;59.19;99373.97;2083897;28;19925;-67
2024/01/10 05:14:37;;;;;;;;;;;;;;;17.25;59.08;99375.66;2088261;28;19925;-68
2024/01/10 05:15:38;;;;;;;;;;;;;;;17.24;59.20;99379.34;2086296;28;19935;-68
2024/01/10 05:16:39;;;;;;;;;;;;;;;17.26;59.17;99371.97;2085045;28;20399;-68
2024/01/10 05:17:40;;;;;;;;;;;;;;;17.27;58.93;99376.28;2088132;28;20394;-68
2024/01/10 05:18:41;;;;;;;;;;;;;;;17.28;58.93;99376.13;2086161;28;19928;-68
2024/01/10 05:19:42;;;;;;;;;;;;;;;17.29;59.02;99382.31;2089115;28;19932;-67